This is the latest recevied weather packets stored in our database for station/object HP1COO-13. If no packets are shown the sender has not sent any weather packets the latest 10 day(s).
| Time | Temp. | Humidity | Pressure | Rain* | Wind** | Luminosity | Snow |
|---|---|---|---|---|---|---|---|
| 1788037386 | 33.33° C | 71% | 1005.4 hPa | 0 mm | - | - | - |
| 1788036753 | 33.33° C | 72% | 1005.4 hPa | 0 mm | - | - | - |
| 1788036120 | 33.33° C | 72% | 1005.4 hPa | 0 mm | - | - | - |
| 1788035487 | 33.33° C | 72% | 1005.6 hPa | 0 mm | - | - | - |
| 1788034854 | 33.33° C | 71% | 1005.2 hPa | 0 mm | - | - | - |
| 1788034221 | 33.33° C | 71% | 1005.7 hPa | 0 mm | - | - | - |
| 1788033588 | 32.78° C | 73% | 1005.8 hPa | 0.25 mm | - | - | - |
| 1788032955 | 32.78° C | 76% | 1006 hPa | 0.25 mm | - | - | - |
| 1788031689 | 31.11° C | 83% | 1006.3 hPa | 0.25 mm | - | - | - |
| 1788031056 | 30.56° C | 84% | 1006.5 hPa | 0.25 mm | - | - | - |
| 1788030423 | 30.56° C | 85% | 1006.8 hPa | 0.25 mm | - | - | - |
| 1788030094 | 31.11° C | 81% | 1007.4 hPa | 0.25 mm | - | - | - |
| 1788029790 | 31.11° C | 81% | 1006.9 hPa | 0 mm | - | - | - |
| 1788029157 | 31.67° C | 77% | 1007.2 hPa | 0 mm | - | - | - |
| 1788028524 | 32.22° C | 75% | 1007.1 hPa | 0 mm | - | - | - |
| 1788027891 | 31.67° C | 77% | 1007.3 hPa | 0 mm | - | - | - |
| 1788027258 | 31.11° C | 78% | 1007.5 hPa | 0 mm | - | - | - |
| 1788026625 | 31.67° C | 79% | 1007.7 hPa | 0 mm | - | - | - |
| 1788025992 | 31.67° C | 79% | 1007.8 hPa | 0 mm | - | - | - |
| 1788025359 | 32.22° C | 76% | 1007.9 hPa | 0 mm | - | - | - |
| 1788024726 | 32.22° C | 74% | 1008 hPa | 0 mm | - | - | - |
| 1788024093 | 32.78° C | 73% | 1008 hPa | 0 mm | - | - | - |
| 1788023460 | 32.22° C | 75% | 1008.2 hPa | 0 mm | - | - | - |
| 1788022827 | 33.33° C | 71% | 1008.3 hPa | 0 mm | - | - | - |
| 1788022194 | 34.44° C | 67% | 1008.3 hPa | 0 mm | - | - | - |
* Rain latest hour (hover to see other rain measurements)
** Current wind speed in m/s (hover to see current wind gust speed)